Time;durP1;ratioP1;P1;durP2;ratioP2;P2;SDS_P1;SDS_P2;PMS_P1;PMS_P2;Temp;Humidity;BMP_temperature;BMP_pressure;BME280_temperature;BME280_humidity;BME280_pressure;Samples;Min_cycle;Max_cycle;Signal;HPM_P1;HPM_P2
2022/07/01 00:02:21;;;;;;;13.95;8.35;;;640.30;2432.00;;;;;;6246452;23;20012;-86
2022/07/01 00:04:47;;;;;;;11.80;8.05;;;640.40;2432.00;;;;;;6246998;23;20058;-84
2022/07/01 00:07:14;;;;;;;12.52;8.30;;;640.40;2432.00;;;;;;6246437;23;20035;-84
2022/07/01 00:09:40;;;;;;;12.82;8.43;;;640.30;2432.00;;;;;;6246820;23;20031;-85
2022/07/01 00:12:06;;;;;;;12.38;8.13;;;640.30;2432.00;;;;;;6246500;23;20087;-85
2022/07/01 00:14:32;;;;;;;12.00;8.30;;;640.10;2432.00;;;;;;6247638;22;20003;-85
2022/07/01 00:16:58;;;;;;;13.07;8.40;;;640.00;2432.00;;;;;;6246627;23;19996;-85
2022/07/01 00:19:27;;;;;;;12.02;7.70;;;640.00;2432.00;;;;;;6246224;23;20004;-84
2022/07/01 00:21:53;;;;;;;10.10;7.75;;;640.10;2432.00;;;;;;6245779;23;20442;-85
2022/07/01 00:24:19;;;;;;;11.50;7.60;;;640.00;2432.00;;;;;;6246294;23;20004;-83
2022/07/01 00:26:45;;;;;;;14.20;7.95;;;615.20;2432.00;;;;;;6246511;23;20004;-84
2022/07/01 00:29:10;;;;;;;12.77;7.90;;;615.20;2432.00;;;;;;6247475;22;20003;-85
2022/07/01 00:31:36;;;;;;;11.88;7.68;;;615.30;2432.00;;;;;;6246108;23;20434;-84
2022/07/01 00:34:03;;;;;;;13.10;8.10;;;615.30;2432.00;;;;;;6246452;23;20015;-84
2022/07/01 00:36:29;;;;;;;11.98;8.48;;;615.30;2432.00;;;;;;6246020;23;20024;-84
2022/07/01 00:38:55;;;;;;;10.35;7.93;;;615.20;2432.00;;;;;;6245749;23;20442;-85
2022/07/01 00:41:22;;;;;;;11.88;8.00;;;640.60;2432.00;;;;;;6245446;23;20008;-83
2022/07/01 00:43:48;;;;;;;14.60;8.38;;;615.20;2432.00;;;;;;6246467;23;20087;-84
2022/07/01 00:46:13;;;;;;;11.32;8.25;;;615.00;2432.00;;;;;;6246494;23;20414;-84
2022/07/01 00:48:40;;;;;;;12.02;8.52;;;614.80;2432.00;;;;;;6264835;22;20012;-84
2022/07/01 00:51:07;;;;;;;11.63;8.02;;;614.80;2432.00;;;;;;6273570;22;20016;-82
2022/07/01 00:53:33;;;;;;;12.98;7.60;;;615.00;2432.00;;;;;;6246636;23;20110;-85
2022/07/01 00:55:58;;;;;;;8.77;7.88;;;614.90;2432.00;;;;;;6245905;23;20000;-85
2022/07/01 00:58:28;;;;;;;10.27;7.95;;;614.80;2432.00;;;;;;6246111;23;20000;-84
2022/07/01 01:00:55;;;;;;;11.30;7.70;;;614.80;2432.00;;;;;;6246105;23;20430;-85
2022/07/01 01:03:21;;;;;;;9.57;7.53;;;615.00;2432.00;;;;;;6245518;23;20004;-84
2022/07/01 01:05:48;;;;;;;9.65;7.65;;;615.20;2432.00;;;;;;6245934;23;20004;-85
2022/07/01 01:08:15;;;;;;;10.82;8.10;;;615.20;2432.00;;;;;;6245838;23;20036;-84
2022/07/01 01:10:42;;;;;;;15.60;9.02;;;615.20;2432.00;;;;;;6245641;23;20378;-85
2022/07/01 01:13:09;;;;;;;8.85;7.20;;;615.20;2432.00;;;;;;6245861;23;20414;-84
2022/07/01 01:15:35;;;;;;;17.52;8.32;;;614.80;2432.00;;;;;;6245944;23;20004;-85
2022/07/01 01:18:02;;;;;;;10.48;8.63;;;615.20;2432.00;;;;;;6245538;23;20438;-85
2022/07/01 01:20:36;;;;;;;9.63;7.97;;;614.80;2432.00;;;;;;6245961;23;20008;-85
2022/07/01 01:23:03;;;;;;;8.75;7.65;;;614.90;2432.00;;;;;;6245314;23;20087;-86
2022/07/01 01:25:29;;;;;;;11.98;8.02;;;615.00;2432.00;;;;;;6245629;23;20347;-86
2022/07/01 01:27:55;;;;;;;9.82;7.93;;;615.00;2432.00;;;;;;6245925;23;20027;-85
2022/07/01 01:30:21;;;;;;;9.68;7.90;;;615.10;2432.00;;;;;;6245781;23;20417;-85
2022/07/01 01:32:47;;;;;;;9.20;7.53;;;615.00;2432.00;;;;;;6246062;23;20378;-85
2022/07/01 01:35:13;;;;;;;13.00;9.27;;;614.90;2432.00;;;;;;6245762;23;20093;-85
2022/07/01 01:37:39;;;;;;;11.45;8.30;;;614.70;2432.00;;;;;;6245766;23;20010;-85
2022/07/01 01:40:05;;;;;;;10.85;8.55;;;614.80;2432.00;;;;;;6245624;23;20000;-85
2022/07/01 01:42:31;;;;;;;11.52;8.30;;;614.50;2432.00;;;;;;6245684;23;20011;-85
2022/07/01 01:44:57;;;;;;;11.27;8.30;;;589.70;2432.00;;;;;;6245097;23;20371;-85
2022/07/01 01:47:23;;;;;;;13.43;8.60;;;614.60;2432.00;;;;;;6245765;23;20000;-85
2022/07/01 01:49:49;;;;;;;9.90;7.68;;;614.60;2432.00;;;;;;6245906;23;20004;-85
2022/07/01 01:52:14;;;;;;;13.70;7.75;;;614.70;2432.00;;;;;;6245621;23;20007;-85
2022/07/01 01:54:40;;;;;;;10.68;8.25;;;614.60;2432.00;;;;;;6245683;23;20004;-85
2022/07/01 01:57:06;;;;;;;11.95;8.57;;;614.70;2432.00;;;;;;6245648;23;20007;-84
2022/07/01 01:59:32;;;;;;;10.43;8.02;;;589.70;2432.00;;;;;;6245308;23;20028;-84
2022/07/01 02:01:58;;;;;;;13.02;8.70;;;614.40;2432.00;;;;;;6245613;23;20326;-85
2022/07/01 02:04:24;;;;;;;11.65;8.43;;;614.40;2432.00;;;;;;6245717;23;20303;-84
2022/07/01 02:06:51;;;;;;;14.40;8.30;;;614.40;2432.00;;;;;;6246899;22;20000;-85
2022/07/01 02:09:17;;;;;;;13.25;9.00;;;614.40;2432.00;;;;;;6245501;23;20010;-84
2022/07/01 02:11:43;;;;;;;16.45;10.07;;;614.40;2432.00;;;;;;6245538;23;20036;-84
2022/07/01 02:14:09;;;;;;;14.95;9.13;;;589.70;2432.00;;;;;;6246627;22;20004;-84
2022/07/01 02:16:34;;;;;;;16.63;10.48;;;589.70;2432.00;;;;;;6245574;23;20333;-85
2022/07/01 02:19:00;;;;;;;11.98;9.23;;;589.70;2432.00;;;;;;6257617;23;20004;-83
2022/07/01 02:21:26;;;;;;;15.77;9.50;;;589.70;2432.00;;;;;;6257013;23;20104;-84
2022/07/01 02:23:52;;;;;;;10.20;8.30;;;589.60;2432.00;;;;;;6245410;23;20329;-83
2022/07/01 02:26:19;;;;;;;10.18;8.05;;;589.60;2432.00;;;;;;6245150;23;20000;-83
2022/07/01 02:28:45;;;;;;;9.98;8.82;;;589.70;2432.00;;;;;;6245388;23;20087;-84
2022/07/01 02:31:10;;;;;;;11.23;7.75;;;589.70;2432.00;;;;;;6245390;23;20031;-84
2022/07/01 02:33:36;;;;;;;11.63;7.90;;;589.60;2432.00;;;;;;6245345;23;20012;-86
2022/07/01 02:36:02;;;;;;;12.32;8.52;;;589.70;2432.00;;;;;;6246785;22;19999;-85
2022/07/01 02:38:28;;;;;;;10.90;8.43;;;589.70;2432.00;;;;;;6245682;23;20000;-85
2022/07/01 02:40:54;;;;;;;11.35;8.82;;;589.70;2432.00;;;;;;6245342;23;20005;-86
2022/07/01 02:43:19;;;;;;;10.18;8.82;;;589.70;2432.00;;;;;;6245400;23;20014;-85
2022/07/01 02:45:45;;;;;;;15.02;9.10;;;589.50;2432.00;;;;;;6245436;23;20008;-85
2022/07/01 02:48:11;;;;;;;14.68;8.40;;;589.30;2432.00;;;;;;6245238;23;20003;-85
2022/07/01 02:50:37;;;;;;;12.40;8.25;;;589.00;2432.00;;;;;;6245372;23;20004;-84
2022/07/01 02:53:03;;;;;;;11.52;8.80;;;589.40;2432.00;;;;;;6245655;23;20007;-84
2022/07/01 02:55:29;;;;;;;9.88;7.97;;;589.30;2432.00;;;;;;6246072;23;20291;-84
2022/07/01 02:57:55;;;;;;;10.57;8.13;;;589.30;2432.00;;;;;;6247235;23;20031;-84
2022/07/01 03:00:22;;;;;;;11.45;8.68;;;589.10;2432.00;;;;;;6247421;23;20444;-84
2022/07/01 03:02:48;;;;;;;13.00;8.80;;;588.90;2432.00;;;;;;6247498;23;20009;-84
2022/07/01 03:05:14;;;;;;;11.55;9.13;;;588.90;2432.00;;;;;;6247574;23;19997;-83
2022/07/01 03:07:40;;;;;;;16.85;11.40;;;588.90;2432.00;;;;;;6247765;23;20035;-84
2022/07/01 03:10:08;;;;;;;13.15;9.75;;;564.10;2432.00;;;;;;6246979;23;20050;-83
2022/07/01 03:12:38;;;;;;;11.23;8.13;;;564.10;2432.00;;;;;;6247158;23;20011;-82
2022/07/01 03:15:12;;;;;;;11.20;8.57;;;588.80;2432.00;;;;;;6247765;23;19997;-84
2022/07/01 03:17:44;;;;;;;11.57;8.93;;;564.10;2432.00;;;;;;6247155;23;20032;-83
2022/07/01 03:20:12;;;;;;;15.90;8.23;;;588.90;2432.00;;;;;;6247486;23;20004;-84
2022/07/01 03:22:38;;;;;;;13.45;8.90;;;589.00;2432.00;;;;;;6246718;23;20012;-83
2022/07/01 03:25:05;;;;;;;10.68;9.35;;;589.10;2432.00;;;;;;6247316;23;19998;-84
2022/07/01 03:27:31;;;;;;;13.45;8.32;;;589.00;2432.00;;;;;;6247210;23;20322;-84
2022/07/01 03:29:58;;;;;;;13.23;9.07;;;589.00;2432.00;;;;;;6246930;23;20007;-84
2022/07/01 03:32:23;;;;;;;13.07;9.32;;;589.00;2432.00;;;;;;6247030;23;20015;-84
2022/07/01 03:34:51;;;;;;;12.68;8.68;;;589.10;2432.00;;;;;;6247216;23;20024;-84
2022/07/01 03:37:19;;;;;;;13.55;8.90;;;589.10;2432.00;;;;;;6246587;23;20090;-84
2022/07/01 03:39:45;;;;;;;16.35;8.57;;;589.10;2432.00;;;;;;6248070;22;20394;-84
2022/07/01 03:42:11;;;;;;;12.50;8.27;;;589.00;2432.00;;;;;;6246836;23;20027;-84
2022/07/01 03:44:37;;;;;;;14.20;9.07;;;589.30;2432.00;;;;;;6246630;23;20418;-84
2022/07/01 03:47:07;;;;;;;14.20;8.93;;;589.30;2432.00;;;;;;6246891;23;20460;-84
2022/07/01 03:49:34;;;;;;;12.18;9.15;;;589.40;2432.00;;;;;;6246895;23;20003;-84
2022/07/01 03:52:00;;;;;;;13.95;8.63;;;589.40;2432.00;;;;;;6246626;23;20047;-84
2022/07/01 03:54:32;;;;;;;15.95;10.52;;;589.40;2432.00;;;;;;6246789;23;20004;-84
2022/07/01 03:57:04;;;;;;;12.73;9.32;;;589.30;2432.00;;;;;;6246927;23;20410;-84
2022/07/01 03:59:32;;;;;;;11.80;8.50;;;589.50;2432.00;;;;;;6246408;23;20007;-84
2022/07/01 04:01:59;;;;;;;15.68;8.88;;;589.30;2432.00;;;;;;6246951;23;20004;-84
2022/07/01 04:04:26;;;;;;;14.30;9.07;;;589.20;2432.00;;;;;;6246698;23;20373;-84
2022/07/01 04:06:53;;;;;;;10.43;8.77;;;589.30;2432.00;;;;;;6246458;23;20027;-84
2022/07/01 04:09:19;;;;;;;14.07;9.40;;;589.40;2432.00;;;;;;6250431;23;20008;-85
2022/07/01 04:11:47;;;;;;;16.52;9.35;;;589.30;2432.00;;;;;;6252039;23;20156;-86
2022/07/01 04:14:13;;;;;;;14.25;9.73;;;589.20;2432.00;;;;;;6246901;23;20004;-86
2022/07/01 04:16:39;;;;;;;17.00;8.77;;;589.20;2432.00;;;;;;6247000;23;20007;-86
2022/07/01 04:19:05;;;;;;;10.55;8.32;;;589.50;2432.00;;;;;;6246930;23;20004;-85
2022/07/01 04:24:16;;;;;;;13.93;9.25;;;589.30;2432.00;;;;;;6247955;23;20090;-85
2022/07/01 04:26:43;;;;;;;14.95;9.57;;;589.30;2432.00;;;;;;6246681;23;20309;-85
2022/07/01 04:29:09;;;;;;;14.18;9.15;;;589.30;2432.00;;;;;;6248296;22;20000;-84
2022/07/01 04:31:39;;;;;;;12.07;8.77;;;589.30;2432.00;;;;;;6246489;23;20028;-85
2022/07/01 04:34:06;;;;;;;20.75;9.68;;;589.40;2432.00;;;;;;6246324;23;20000;-85
2022/07/01 04:36:32;;;;;;;12.98;9.15;;;589.40;2432.00;;;;;;6246703;23;20029;-85
2022/07/01 04:38:58;;;;;;;17.48;10.20;;;589.50;2432.00;;;;;;6246487;23;20007;-86
2022/07/01 04:44:08;;;;;;;14.63;9.02;;;589.30;2432.00;;;;;;6247623;23;20066;-85
2022/07/01 04:46:35;;;;;;;19.05;9.93;;;589.40;2432.00;;;;;;6246407;23;19996;-85
2022/07/01 04:49:01;;;;;;;13.50;9.10;;;589.30;2432.00;;;;;;6246814;23;20026;-85
2022/07/01 04:51:26;;;;;;;13.55;9.35;;;589.30;2432.00;;;;;;6246669;23;20325;-85
2022/07/01 04:53:53;;;;;;;17.73;9.48;;;589.40;2432.00;;;;;;6246704;23;20007;-86
2022/07/01 04:56:19;;;;;;;15.18;9.30;;;589.70;2432.00;;;;;;6246308;23;20440;-85
2022/07/01 04:58:45;;;;;;;15.55;8.82;;;589.40;2432.00;;;;;;6246686;23;20023;-85
2022/07/01 05:01:10;;;;;;;11.00;8.55;;;589.60;2432.00;;;;;;6247719;22;20003;-86
2022/07/01 05:03:36;;;;;;;12.95;9.15;;;589.70;2432.00;;;;;;6247470;22;20000;-85
2022/07/01 05:06:02;;;;;;;13.30;8.90;;;589.70;2432.00;;;;;;6246317;23;20004;-86
2022/07/01 05:08:28;;;;;;;11.20;8.65;;;589.70;2432.00;;;;;;6246337;23;20000;-85
2022/07/01 05:10:54;;;;;;;9.30;8.25;;;614.40;2432.00;;;;;;6246675;23;20012;-86
2022/07/01 05:13:20;;;;;;;13.95;8.85;;;614.40;2432.00;;;;;;6246693;23;20083;-84
2022/07/01 05:15:46;;;;;;;14.88;9.52;;;614.40;2432.00;;;;;;6246850;23;20000;-84
2022/07/01 05:23:41;;;;;;;13.13;9.32;;;614.40;2432.00;;;;;;6248243;23;20438;-84
2022/07/01 05:26:07;;;;;;;12.95;10.10;;;589.70;2432.00;;;;;;6247849;22;20023;-84
2022/07/01 05:28:33;;;;;;;14.02;12.50;;;614.50;2432.00;;;;;;6256170;23;20031;-84
2022/07/01 05:30:58;;;;;;;18.33;12.23;;;614.50;2432.00;;;;;;6261079;23;20307;-84
2022/07/01 05:33:26;;;;;;;15.15;13.57;;;614.50;2432.00;;;;;;6248297;23;20086;-86
2022/07/01 05:35:53;;;;;;;23.02;12.73;;;614.60;2432.00;;;;;;6245739;23;20007;-85
2022/07/01 05:38:19;;;;;;;14.57;11.10;;;615.10;2432.00;;;;;;6245400;23;20027;-82
2022/07/01 05:40:44;;;;;;;14.70;10.27;;;614.80;2432.00;;;;;;6245772;23;20441;-81
2022/07/01 05:43:10;;;;;;;16.58;9.25;;;614.90;2432.00;;;;;;6245545;23;20008;-84
2022/07/01 05:45:36;;;;;;;14.40;9.25;;;615.00;2432.00;;;;;;6245643;23;20428;-83
2022/07/01 05:48:02;;;;;;;11.70;8.98;;;615.10;2432.00;;;;;;6245381;23;20032;-85
2022/07/01 05:50:28;;;;;;;12.75;9.32;;;615.20;2432.00;;;;;;6245478;23;20027;-86
2022/07/01 05:52:53;;;;;;;14.65;10.30;;;615.30;2432.00;;;;;;6247794;23;20430;-89
2022/07/01 05:55:19;;;;;;;16.98;10.75;;;615.30;2432.00;;;;;;6273494;22;20004;-85
2022/07/01 05:57:45;;;;;;;14.15;8.85;;;640.00;2432.00;;;;;;6273725;22;20181;-83
2022/07/01 06:00:11;;;;;;;14.23;9.20;;;640.10;2432.00;;;;;;6250113;23;20000;-85
2022/07/01 06:02:38;;;;;;;12.57;8.50;;;640.20;2432.00;;;;;;6245911;23;20008;-84
2022/07/01 06:05:04;;;;;;;20.40;9.68;;;615.20;2432.00;;;;;;6245803;23;20448;-85
2022/07/01 06:07:30;;;;;;;17.15;9.80;;;640.90;2432.00;;;;;;6246179;23;19996;-85
2022/07/01 06:09:59;;;;;;;21.65;10.63;;;640.50;2432.00;;;;;;6245887;23;20004;-86
2022/07/01 06:12:25;;;;;;;18.63;11.82;;;640.60;2432.00;;;;;;6245841;23;20015;-86
2022/07/01 06:14:50;;;;;;;17.40;9.68;;;640.60;2432.00;;;;;;6246472;23;20000;-87
2022/07/01 06:17:17;;;;;;;17.20;10.75;;;640.70;2432.00;;;;;;6250352;23;20001;-85
2022/07/01 06:19:43;;;;;;;16.20;9.55;;;640.80;2432.00;;;;;;6250977;23;20000;-86
2022/07/01 06:22:09;;;;;;;24.88;17.60;;;640.90;2432.00;;;;;;6244894;23;20342;-85
2022/07/01 06:24:34;;;;;;;15.52;11.15;;;665.60;2432.00;;;;;;6245175;23;20010;-85
2022/07/01 06:27:01;;;;;;;14.45;8.80;;;665.70;2432.00;;;;;;6245480;23;20426;-85
2022/07/01 06:29:29;;;;;;;17.05;11.52;;;665.90;2432.00;;;;;;6247178;22;20003;-85
2022/07/01 06:31:55;;;;;;;22.10;16.35;;;666.00;2432.00;;;;;;6245686;23;20023;-85
2022/07/01 06:34:20;;;;;;;15.45;11.77;;;666.20;2432.00;;;;;;6245814;23;20005;-84
2022/07/01 06:36:46;;;;;;;17.60;9.23;;;666.30;2432.00;;;;;;6245534;23;20187;-83
2022/07/01 06:39:12;;;;;;;16.70;9.30;;;666.30;2432.00;;;;;;6245462;23;20007;-83
2022/07/01 06:41:38;;;;;;;16.25;9.23;;;691.20;2432.00;;;;;;6246078;23;20004;-86
2022/07/01 06:44:07;;;;;;;12.85;9.13;;;691.40;2432.00;;;;;;6247364;22;20414;-88
2022/07/01 06:46:33;;;;;;;11.10;8.73;;;691.60;2432.00;;;;;;6246235;23;20008;-85
2022/07/01 06:48:59;;;;;;;13.63;8.80;;;691.80;2432.00;;;;;;6246069;23;20383;-84
2022/07/01 06:51:26;;;;;;;13.02;7.57;;;692.00;2432.00;;;;;;6245869;23;20016;-82
2022/07/01 06:53:52;;;;;;;13.90;7.97;;;716.80;2432.00;;;;;;6245043;23;20011;-82
2022/07/01 06:56:18;;;;;;;15.13;8.00;;;716.90;2432.00;;;;;;6245531;23;20004;-83
2022/07/01 06:58:44;;;;;;;10.60;7.20;;;716.90;2432.00;;;;;;6246393;22;20068;-82
2022/07/01 07:01:10;;;;;;;13.25;11.10;;;716.80;2432.00;;;;;;6245115;23;20004;-81
2022/07/01 07:03:36;;;;;;;12.27;10.90;;;716.80;2432.00;;;;;;6244860;23;20008;-83
2022/07/01 07:06:03;;;;;;;10.80;7.65;;;717.00;2432.00;;;;;;6244789;23;20073;-81
2022/07/01 07:08:32;;;;;;;21.13;17.50;;;717.10;2432.00;;;;;;6245009;23;20004;-84
2022/07/01 07:10:59;;;;;;;17.05;14.02;;;717.00;2432.00;;;;;;6245197;23;20139;-85
2022/07/01 07:13:25;;;;;;;27.80;24.65;;;717.40;2432.00;;;;;;6245601;23;20452;-84
2022/07/01 07:15:51;;;;;;;12.63;9.38;;;717.60;2432.00;;;;;;6245611;23;20004;-84
2022/07/01 07:18:17;;;;;;;14.70;7.32;;;717.70;2432.00;;;;;;6245955;23;20499;-81
2022/07/01 07:20:43;;;;;;;9.68;7.47;;;717.50;2432.00;;;;;;6244785;23;20043;-84
2022/07/01 07:23:10;;;;;;;8.73;7.70;;;717.70;2432.00;;;;;;6244838;23;20070;-82
2022/07/01 07:25:36;;;;;;;9.68;7.35;;;717.70;2432.00;;;;;;6245663;23;19997;-83
2022/07/01 07:28:01;;;;;;;12.43;7.50;;;717.70;2432.00;;;;;;6245478;23;20365;-84
2022/07/01 07:30:27;;;;;;;10.40;6.32;;;742.40;2432.00;;;;;;6245213;23;20031;-82
2022/07/01 07:32:53;;;;;;;9.80;8.38;;;717.70;2432.00;;;;;;6245248;23;20058;-83
2022/07/01 07:35:19;;;;;;;28.13;25.23;;;742.50;2432.00;;;;;;6244503;23;20004;-84
2022/07/01 07:37:45;;;;;;;11.60;8.25;;;742.70;2432.00;;;;;;6245234;23;20330;-85
2022/07/01 07:40:14;;;;;;;11.65;7.78;;;743.00;2432.00;;;;;;6245670;23;19996;-85
2022/07/01 07:42:41;;;;;;;9.98;6.53;;;743.10;2432.00;;;;;;6246349;23;20043;-87
2022/07/01 07:45:08;;;;;;;6.25;5.43;;;743.00;2432.00;;;;;;6246261;23;20001;-87
2022/07/01 07:47:34;;;;;;;8.98;6.25;;;743.20;2432.00;;;;;;6248123;23;20091;-85
2022/07/01 07:50:00;;;;;;;9.43;5.65;;;768.00;2432.00;;;;;;6246982;23;20000;-85
2022/07/01 07:52:26;;;;;;;11.75;6.47;;;743.30;2432.00;;;;;;6247850;23;20008;-85
2022/07/01 07:54:52;;;;;;;15.70;7.45;;;768.00;2432.00;;;;;;6247121;23;20038;-86
2022/07/01 07:57:18;;;;;;;11.73;5.43;;;768.00;2432.00;;;;;;6247796;23;20005;-86
2022/07/01 07:59:44;;;;;;;8.68;5.53;;;768.50;2380.80;;;;;;6253096;23;20373;-86
2022/07/01 08:02:09;;;;;;;16.38;6.07;;;768.50;2380.80;;;;;;6254013;23;20000;-86
2022/07/01 08:04:35;;;;;;;12.35;5.85;;;768.70;2380.80;;;;;;6251474;23;20152;-86
2022/07/01 08:07:01;;;;;;;8.77;5.90;;;768.90;2355.20;;;;;;6246931;23;20027;-86
2022/07/01 08:09:27;;;;;;;10.13;5.70;;;;;;;;;;6247039;23;20000;-86
2022/07/01 08:11:53;;;;;;;8.15;6.30;;;;;;;;;;6247522;23;20004;-86
2022/07/01 08:14:20;;;;;;;8.55;5.22;;;;;;;;;;6247455;23;20008;-86
2022/07/01 08:16:45;;;;;;;9.70;5.45;;;794.20;2304.00;;;;;;6247144;23;20001;-86
2022/07/01 08:19:11;;;;;;;7.35;5.38;;;794.10;2304.00;;;;;;6247606;23;20000;-86
2022/07/01 08:21:37;;;;;;;8.88;5.70;;;793.80;2329.60;;;;;;6246918;23;20019;-87
2022/07/01 08:24:03;;;;;;;9.55;5.60;;;;;;;;;;6246969;23;20004;-86
2022/07/01 08:26:30;;;;;;;7.97;5.82;;;;;;;;;;6246998;23;20083;-86
2022/07/01 08:28:56;;;;;;;11.25;5.68;;;;;;;;;;6247526;23;20010;-87
2022/07/01 08:31:22;;;;;;;7.93;5.80;;;;;;;;;;6248461;23;19996;-86
2022/07/01 08:33:48;;;;;;;11.15;5.90;;;;;;;;;;6247504;23;20484;-87
2022/07/01 08:36:15;;;;;;;10.73;5.60;;;;;;;;;;6248907;23;20083;-87
2022/07/01 08:38:41;;;;;;;8.10;5.75;;;;;;;;;;6254560;23;20000;-87
2022/07/01 08:41:07;;;;;;;9.75;5.53;;;;;;;;;;6250231;23;20000;-87
2022/07/01 08:43:34;;;;;;;11.05;5.85;;;;;;;;;;6246535;23;20492;-87
2022/07/01 08:46:01;;;;;;;9.48;5.65;;;;;;;;;;6246574;23;20087;-87
2022/07/01 08:48:28;;;;;;;8.48;5.40;;;819.70;2201.60;;;;;;6246588;23;20000;-84
2022/07/01 08:50:54;;;;;;;10.88;5.50;;;819.60;2176.00;;;;;;6246420;23;20024;-84
2022/07/01 08:53:20;;;;;;;8.63;5.90;;;819.50;2201.60;;;;;;6245844;23;20004;-84
2022/07/01 08:58:30;;;;;;;11.15;8.60;;;819.70;2201.60;;;;;;6247699;23;20086;-83
2022/07/01 09:01:22;;;;;;;7.47;5.22;;;819.90;2201.60;;;;;;6246407;23;20004;-84
2022/07/01 09:03:52;;;;;;;6.50;5.40;;;844.80;2176.00;;;;;;6246100;23;20058;-84
2022/07/01 09:06:23;;;;;;;8.40;5.20;;;819.80;2124.80;;;;;;6246122;23;20008;-84
2022/07/01 09:08:49;;;;;;;9.55;6.18;;;820.00;2150.40;;;;;;6245667;23;19997;-85
2022/07/01 09:11:24;;;;;;;7.55;5.25;;;844.90;2150.40;;;;;;6246237;23;20004;-85
2022/07/01 09:14:08;;;;;;;7.43;4.93;;;845.20;2099.20;;;;;;6245958;23;20426;-85
2022/07/01 09:16:57;;;;;;;6.13;4.55;;;845.20;2048.00;;;;;;6247871;22;19997;-85
2022/07/01 09:19:24;;;;;;;5.57;4.80;;;845.10;2048.00;;;;;;6246124;23;20003;-85
2022/07/01 09:21:57;;;;;;;8.02;5.40;;;844.90;2073.60;;;;;;6245943;23;20016;-85
2022/07/01 09:24:27;;;;;;;8.57;5.40;;;845.20;2073.60;;;;;;6246003;23;20008;-84
2022/07/01 09:27:00;;;;;;;6.20;5.05;;;845.10;2048.00;;;;;;6245872;23;20091;-84
2022/07/01 09:29:30;;;;;;;7.30;5.03;;;845.00;2022.40;;;;;;6246250;23;20087;-85
2022/07/01 09:31:56;;;;;;;7.07;4.75;;;845.20;2048.00;;;;;;6246237;23;20444;-84
2022/07/01 09:34:22;;;;;;;8.57;5.15;;;845.20;2022.40;;;;;;6245731;23;20091;-85
2022/07/01 09:36:56;;;;;;;7.68;5.07;;;845.40;2022.40;;;;;;6246305;23;20089;-85
2022/07/01 09:39:22;;;;;;;8.13;4.63;;;845.40;2022.40;;;;;;6245864;23;20458;-86
2022/07/01 09:41:48;;;;;;;12.40;6.22;;;845.70;1971.20;;;;;;6246652;23;20027;-86
2022/07/01 09:44:14;;;;;;;8.52;4.88;;;870.70;1971.20;;;;;;6245605;23;20091;-85
2022/07/01 09:46:52;;;;;;;7.97;5.32;;;845.70;1971.20;;;;;;6246524;23;20343;-86
2022/07/01 09:49:18;;;;;;;7.65;5.20;;;845.70;1996.80;;;;;;6246181;23;20007;-84
2022/07/01 09:51:44;;;;;;;6.90;4.43;;;870.60;1996.80;;;;;;6246063;23;20418;-85
2022/07/01 09:54:12;;;;;;;7.85;4.93;;;870.90;1971.20;;;;;;6245926;23;20004;-84
2022/07/01 09:56:38;;;;;;;8.52;5.00;;;870.60;1971.20;;;;;;6245935;23;20008;-84
2022/07/01 09:59:04;;;;;;;5.72;4.30;;;871.00;1945.60;;;;;;6246101;23;20004;-84
2022/07/01 10:01:32;;;;;;;6.40;4.22;;;871.00;1945.60;;;;;;6245903;23;20011;-84
2022/07/01 10:04:00;;;;;;;7.07;5.10;;;896.00;1920.00;;;;;;6245671;23;20087;-84
2022/07/01 10:06:32;;;;;;;8.15;4.78;;;871.10;1920.00;;;;;;6245694;23;20008;-83
2022/07/01 10:09:08;;;;;;;6.95;4.47;;;;;;;;;;6245965;23;20003;-83
2022/07/01 10:11:52;;;;;;;6.82;4.07;;;896.90;1843.20;;;;;;6245659;23;20134;-84
2022/07/01 10:14:19;;;;;;;6.57;3.90;;;896.80;1817.60;;;;;;6246109;23;20074;-83
2022/07/01 10:16:51;;;;;;;4.97;4.25;;;896.30;1766.40;;;;;;6245692;23;20054;-84
2022/07/01 10:19:27;;;;;;;7.82;4.63;;;896.50;1766.40;;;;;;6245769;23;20078;-84
2022/07/01 10:21:56;;;;;;;6.50;3.85;;;896.80;1817.60;;;;;;6245320;23;20020;-85
2022/07/01 10:24:24;;;;;;;7.70;3.95;;;921.70;1715.20;;;;;;6245713;23;20031;-85
2022/07/01 10:26:50;;;;;;;7.20;4.10;;;896.90;1740.80;;;;;;6245642;23;20007;-85
2022/07/01 10:29:38;;;;;;;7.13;3.72;;;921.80;1740.80;;;;;;6247120;22;20322;-84
2022/07/01 10:32:29;;;;;;;6.25;3.53;;;921.90;1740.80;;;;;;6245762;23;20008;-84
2022/07/01 10:35:06;;;;;;;7.25;3.80;;;896.90;1638.40;;;;;;6247522;22;20007;-85
2022/07/01 10:37:32;;;;;;;7.75;3.90;;;896.80;1638.40;;;;;;6273438;22;19992;-84
2022/07/01 10:39:59;;;;;;;5.63;4.03;;;896.70;1689.60;;;;;;6253847;22;20456;-84
2022/07/01 10:42:54;;;;;;;10.07;4.25;;;921.60;1740.80;;;;;;6245775;23;20057;-84
2022/07/01 10:45:20;;;;;;;6.70;3.67;;;896.90;1689.60;;;;;;6220020;23;20004;-84
2022/07/01 10:47:46;;;;;;;6.72;3.55;;;896.90;1689.60;;;;;;6245281;23;20008;-84
2022/07/01 10:50:16;;;;;;;8.80;4.10;;;921.80;1664.00;;;;;;6245359;23;20004;-84
2022/07/01 10:53:09;;;;;;;5.30;4.25;;;896.90;1638.40;;;;;;6245843;23;20028;-84
2022/07/01 10:55:37;;;;;;;8.32;3.85;;;922.10;1664.00;;;;;;6238310;23;20035;-85
2022/07/01 10:58:03;;;;;;;7.75;3.60;;;922.10;1664.00;;;;;;6245300;23;20015;-85
2022/07/01 11:00:32;;;;;;;8.13;3.40;;;922.50;1638.40;;;;;;6245160;23;20027;-85
2022/07/01 11:03:22;;;;;;;6.43;3.67;;;947.40;1587.20;;;;;;6245190;23;20009;-84
2022/07/01 11:05:51;;;;;;;5.80;2.97;;;947.90;1561.60;;;;;;6245865;23;20146;-85
2022/07/01 11:08:17;;;;;;;8.30;3.10;;;947.70;1484.80;;;;;;6245409;23;20001;-85
2022/07/01 11:10:43;;;;;;;4.82;2.92;;;948.00;1484.80;;;;;;6245363;23;20007;-85
2022/07/01 11:13:13;;;;;;;6.75;3.72;;;947.90;1510.40;;;;;;6245390;23;20008;-86
2022/07/01 11:15:39;;;;;;;7.57;3.88;;;948.00;1587.20;;;;;;6245665;23;20000;-85
2022/07/01 11:18:05;;;;;;;16.17;14.50;;;973.00;1612.80;;;;;;6246965;23;20049;-87
2022/07/01 11:20:32;;;;;;;10.23;4.18;;;973.20;1587.20;;;;;;6247000;23;20078;-86
2022/07/01 11:22:59;;;;;;;7.22;3.78;;;973.20;1536.00;;;;;;6246681;23;20031;-89
2022/07/01 11:25:26;;;;;;;8.77;5.13;;;922.20;1510.40;;;;;;6247576;23;20012;-88
2022/07/01 11:27:52;;;;;;;21.00;16.85;;;973.10;1561.60;;;;;;6247646;23;20043;-87
2022/07/01 11:30:20;;;;;;;8.55;4.47;;;973.40;1536.00;;;;;;6247473;23;20028;-85
2022/07/01 11:32:52;;;;;;;8.55;5.45;;;948.00;1459.20;;;;;;6246828;23;20015;-88
2022/07/01 11:40:58;;;;;;;6.82;5.15;;;947.60;1510.40;;;;;;6249028;23;20437;-87
2022/07/01 11:43:30;;;;;;;6.78;4.28;;;947.90;1484.80;;;;;;6246580;23;20061;-84
2022/07/01 11:45:59;;;;;;;6.88;4.43;;;948.00;1484.80;;;;;;6257450;22;19997;-86
2022/07/01 11:48:50;;;;;;;6.68;3.78;;;948.10;1484.80;;;;;;6258139;23;20024;-86
2022/07/01 11:51:21;;;;;;;6.33;3.77;;;972.80;1484.80;;;;;;6229436;23;20012;-87
2022/07/01 11:53:49;;;;;;;7.57;3.80;;;972.80;1536.00;;;;;;6246668;23;20004;-87
2022/07/01 11:56:17;;;;;;;4.88;3.70;;;973.10;1484.80;;;;;;6245909;23;20028;-87
2022/07/01 11:58:51;;;;;;;5.93;3.47;;;972.80;1510.40;;;;;;6245334;23;20031;-85
2022/07/01 12:01:32;;;;;;;6.00;3.67;;;972.80;1510.40;;;;;;6245904;23;20032;-86
2022/07/01 12:04:00;;;;;;;8.07;3.60;;;973.00;1510.40;;;;;;6245523;23;20062;-87
2022/07/01 12:06:27;;;;;;;8.23;6.25;;;973.20;1484.80;;;;;;6247308;23;20015;-86
2022/07/01 12:08:55;;;;;;;6.65;4.70;;;973.00;1484.80;;;;;;6246700;23;20393;-87
2022/07/01 12:11:21;;;;;;;8.20;4.07;;;972.90;1484.80;;;;;;6246628;23;20001;-87
2022/07/01 12:13:48;;;;;;;5.57;4.00;;;973.20;1459.20;;;;;;6246898;23;20008;-86
2022/07/01 12:16:15;;;;;;;5.18;3.22;;;973.20;1459.20;;;;;;6247425;23;20004;-88
2022/07/01 12:19:02;;;;;;;6.55;3.60;;;973.20;1459.20;;;;;;6246884;23;20114;-87
2022/07/01 12:21:29;;;;;;;5.38;3.08;;;973.20;1433.60;;;;;;6247063;23;20016;-87
2022/07/01 12:24:22;;;;;;;5.28;3.47;;;973.40;1408.00;;;;;;6246791;23;20035;-85
2022/07/01 12:27:02;;;;;;;9.43;5.05;;;998.40;1459.20;;;;;;6240147;23;19996;-85
2022/07/01 12:29:31;;;;;;;4.65;3.25;;;998.60;1382.40;;;;;;6246723;23;20091;-88
2022/07/01 12:32:02;;;;;;;8.07;3.58;;;973.70;1331.20;;;;;;6246921;23;20088;-88
2022/07/01 12:34:41;;;;;;;6.05;3.10;;;998.40;1356.80;;;;;;6247687;23;20015;-88
2022/07/01 12:37:20;;;;;;;5.70;3.10;;;973.50;1356.80;;;;;;6247026;23;20357;-87
2022/07/01 12:39:51;;;;;;;5.15;3.20;;;973.70;1356.80;;;;;;6247125;23;20007;-87